Station Historical Data
Daily Summary for October 27, 2017 Units:  English    Metric   Both
« Previous Day
Next Day »
Daily Weekly Monthly Yearly Custom
  High: Low: Average:
Temperature: 69.7 °F 35.6 °F 51.7 °F
Dew Point: 49.0 °F 32.2 °F 40.6 °F
Humidity: 90% 42% 68%
Wind Speed: 7.0mph 0.0mph 1.3mph
Wind Gust: 13.0mph - -
Wind- - South
Pressure: 29.95 in 29.80 in -
Precipitation: 0.00 in    
Historical Graphs
 
 
Tabular Data for October 27, 2017
Time Temperature Dew Point Pressure Wind Wind Speed Wind Gust Humidity Rainfall Rate (Hourly)
00:04 36.9 °F 32.8 °F 29.92 in Calm     85% 0.00 in
00:09 36.8 °F 33.0 °F 29.92 in Calm     86% 0.00 in
00:14 36.7 °F 32.9 °F 29.92 in Calm     86% 0.00 in
00:19 36.7 °F 32.9 °F 29.92 in Calm     86% 0.00 in
00:24 36.6 °F 32.8 °F 29.93 in Calm     86% 0.00 in
00:29 36.4 °F 32.6 °F 29.93 in Calm     86% 0.00 in
00:34 36.4 °F 32.6 °F 29.93 in Calm     86% 0.00 in
00:39 36.2 °F 32.7 °F 29.93 in Calm     87% 0.00 in
00:44 36.1 °F 32.6 °F 29.93 in Calm     87% 0.00 in
00:49 36.0 °F 32.5 °F 29.93 in Calm     87% 0.00 in
00:54 35.7 °F 32.2 °F 29.93 in Calm     87% 0.00 in
00:59 35.6 °F 32.4 °F 29.93 in Calm     88% 0.00 in
01:04 35.6 °F 32.4 °F 29.93 in Calm     88% 0.00 in
01:09 35.7 °F 32.5 °F 29.93 in Calm     88% 0.00 in
01:14 35.8 °F 32.6 °F 29.93 in Calm     88% 0.00 in
01:19 35.8 °F 32.6 °F 29.93 in Calm     88% 0.00 in
01:24 35.7 °F 32.8 °F 29.93 in Calm     89% 0.00 in
01:29 35.7 °F 32.8 °F 29.93 in Calm     89% 0.00 in
01:34 35.9 °F 33.0 °F 29.93 in Calm     89% 0.00 in
01:39 35.9 °F 33.0 °F 29.92 in Calm     89% 0.00 in
01:44 35.7 °F 32.8 °F 29.93 in Calm     89% 0.00 in
01:49 35.7 °F 32.8 °F 29.93 in Calm     89% 0.00 in
01:54 35.9 °F 33.0 °F 29.93 in Calm     89% 0.00 in
01:59 36.3 °F 33.6 °F 29.93 in Calm     90% 0.00 in
02:04 36.7 °F 34.0 °F 29.92 in Calm     90% 0.00 in
02:09 37.3 °F 34.6 °F 29.92 in Calm     90% 0.00 in
02:14 37.6 °F 34.9 °F 29.93 in Calm     90% 0.00 in
02:19 37.7 °F 35.0 °F 29.93 in Calm     90% 0.00 in
02:24 37.9 °F 35.2 °F 29.93 in Calm     90% 0.00 in
02:29 37.9 °F 35.2 °F 29.93 in Calm     90% 0.00 in
02:34 37.8 °F 34.8 °F 29.93 in Calm     89% 0.00 in
02:39 37.7 °F 34.8 °F 29.93 in Calm     89% 0.00 in
02:44 37.7 °F 34.8 °F 29.93 in Calm     89% 0.00 in
02:49 38.0 °F 35.3 °F 29.94 in Calm     90% 0.00 in
02:54 38.1 °F 35.1 °F 29.94 in Calm     89% 0.00 in
02:59 38.1 °F 35.1 °F 29.94 in Calm     89% 0.00 in
03:04 38.0 °F 35.0 °F 29.94 in Calm     89% 0.00 in
03:09 38.0 °F 35.0 °F 29.94 in Calm     89% 0.00 in
03:14 38.1 °F 35.1 °F 29.94 in Calm     89% 0.00 in
03:19 38.2 °F 35.2 °F 29.94 in Calm     89% 0.00 in
03:24 38.3 °F 35.3 °F 29.94 in Calm     89% 0.00 in
03:29 38.3 °F 35.3 °F 29.94 in Calm     89% 0.00 in
03:34 38.5 °F 35.5 °F 29.94 in Calm     89% 0.00 in
03:39 38.8 °F 35.8 °F 29.94 in Calm     89% 0.00 in
03:44 39.1 °F 36.1 °F 29.94 in Calm     89% 0.00 in
03:49 39.4 °F 36.4 °F 29.94 in Calm     89% 0.00 in
03:54 39.6 °F 36.6 °F 29.94 in Calm     89% 0.00 in
03:59 40.1 °F 36.8 °F 29.94 in Calm     88% 0.00 in
04:04 40.6 °F 37.3 °F 29.95 in Calm   2.0 mph 88% 0.00 in
04:09 41.1 °F 37.5 °F 29.94 in Calm   2.0 mph 87% 0.00 in
04:14 41.4 °F 37.5 °F 29.95 in Calm   2.0 mph 86% 0.00 in
04:19 41.7 °F 37.8 °F 29.95 in Calm   2.0 mph 86% 0.00 in
04:24 42.0 °F 37.8 °F 29.95 in Calm     85% 0.00 in
04:29 42.2 °F 37.7 °F 29.95 in Calm     84% 0.00 in
04:34 42.0 °F 37.5 °F 29.95 in Calm     84% 0.00 in
04:39 41.8 °F 37.3 °F 29.95 in Calm     84% 0.00 in
04:44 41.6 °F 37.1 °F 29.95 in Calm     84% 0.00 in
04:49 41.4 °F 36.9 °F 29.95 in Calm     84% 0.00 in
04:54 41.3 °F 36.8 °F 29.95 in Calm     84% 0.00 in
04:59 41.1 °F 36.6 °F 29.95 in Calm     84% 0.00 in
05:04 41.0 °F 36.5 °F 29.95 in Calm     84% 0.00 in
05:09 41.0 °F 36.5 °F 29.95 in Calm     84% 0.00 in
05:14 41.1 °F 36.6 °F 29.95 in Calm   1.0 mph 84% 0.00 in
05:19 41.1 °F 36.3 °F 29.95 in Calm   1.0 mph 83% 0.00 in
05:24 41.5 °F 36.4 °F 29.95 in Calm   2.0 mph 82% 0.00 in
05:29 41.7 °F 36.6 °F 29.95 in Calm   2.0 mph 82% 0.00 in
05:34 41.9 °F 36.5 °F 29.95 in South 1.0 mph 2.0 mph 81% 0.00 in
05:39 42.2 °F 36.5 °F 29.95 in Calm   3.0 mph 80% 0.00 in
05:44 42.3 °F 36.3 °F 29.95 in Calm   3.0 mph 79% 0.00 in
05:49 42.3 °F 36.3 °F 29.95 in South 1.0 mph 2.0 mph 79% 0.00 in
05:54 42.5 °F 36.4 °F 29.95 in Calm   2.0 mph 79% 0.00 in
05:59 42.7 °F 36.3 °F 29.95 in South 1.0 mph 3.0 mph 78% 0.00 in
06:04 42.8 °F 36.4 °F 29.95 in South 2.0 mph 3.0 mph 78% 0.00 in
06:09 42.8 °F 36.4 °F 29.95 in Calm   3.0 mph 78% 0.00 in
06:14 42.8 °F 36.4 °F 29.95 in Calm   3.0 mph 78% 0.00 in
06:19 42.7 °F 36.3 °F 29.95 in Calm   2.0 mph 78% 0.00 in
06:24 42.7 °F 36.3 °F 29.95 in Calm     78% 0.00 in
06:29 42.5 °F 36.1 °F 29.94 in Calm     78% 0.00 in
06:34 42.4 °F 36.0 °F 29.94 in Calm     78% 0.00 in
06:44 42.2 °F 35.8 °F 29.95 in Calm     78% 0.00 in
06:49 41.9 °F 35.9 °F 29.94 in Calm     79% 0.00 in
06:54 41.8 °F 35.8 °F 29.94 in Calm     79% 0.00 in
06:59 41.6 °F 35.9 °F 29.93 in Calm     80% 0.00 in
07:04 41.5 °F 35.8 °F 29.93 in Calm     80% 0.00 in
07:09 41.4 °F 35.7 °F 29.94 in Calm     80% 0.00 in
07:14 41.3 °F 35.6 °F 29.93 in Calm     80% 0.00 in
07:19 41.3 °F 35.6 °F 29.93 in Calm     80% 0.00 in
07:24 41.2 °F 35.8 °F 29.93 in Calm     81% 0.00 in
07:29 41.2 °F 35.8 °F 29.93 in Calm     81% 0.00 in
07:34 41.1 °F 35.7 °F 29.93 in Calm     81% 0.00 in
07:39 41.0 °F 35.6 °F 29.94 in Calm     81% 0.00 in
07:44 41.0 °F 35.6 °F 29.94 in Calm     81% 0.00 in
07:49 40.9 °F 35.5 °F 29.94 in Calm     81% 0.00 in
07:54 40.9 °F 35.5 °F 29.93 in Calm     81% 0.00 in
07:59 41.0 °F 35.6 °F 29.93 in Calm   3.0 mph 81% 0.00 in
08:04 41.1 °F 35.7 °F 29.93 in Calm   3.0 mph 81% 0.00 in
08:09 41.3 °F 35.9 °F 29.93 in Calm   3.0 mph 81% 0.00 in
08:14 41.5 °F 35.8 °F 29.94 in SSE 2.0 mph 4.0 mph 80% 0.00 in
08:19 41.8 °F 36.1 °F 29.94 in SSE 2.0 mph 4.0 mph 80% 0.00 in
08:24 42.0 °F 36.0 °F 29.94 in SSE 2.0 mph 4.0 mph 79% 0.00 in
08:29 42.2 °F 36.2 °F 29.94 in SSE 1.0 mph 6.0 mph 79% 0.00 in
08:34 42.4 °F 36.0 °F 29.94 in ESE 2.0 mph 5.0 mph 78% 0.00 in
08:39 42.5 °F 36.1 °F 29.93 in Calm   6.0 mph 78% 0.00 in
08:44 42.8 °F 36.4 °F 29.93 in Calm   5.0 mph 78% 0.00 in
08:49 42.9 °F 36.2 °F 29.93 in ESE 2.0 mph 5.0 mph 77% 0.00 in
08:54 43.1 °F 36.4 °F 29.93 in SE 1.0 mph 5.0 mph 77% 0.00 in
08:59 43.4 °F 36.7 °F 29.93 in SE 1.0 mph 4.0 mph 77% 0.00 in
09:04 43.7 °F 37.0 °F 29.93 in ESE 1.0 mph 5.0 mph 77% 0.00 in
09:09 44.1 °F 37.3 °F 29.93 in ESE 1.0 mph 5.0 mph 77% 0.00 in
09:14 44.3 °F 37.2 °F 29.93 in Calm   6.0 mph 76% 0.00 in
09:19 44.7 °F 37.6 °F 29.93 in Calm     76% 0.00 in
09:24 45.2 °F 37.7 °F 29.93 in SSE 1.0 mph 4.0 mph 75% 0.00 in
09:29 45.6 °F 38.1 °F 29.93 in ESE 1.0 mph 5.0 mph 75% 0.00 in
09:34 45.7 °F 37.9 °F 29.92 in ESE 2.0 mph 6.0 mph 74% 0.00 in
09:39 45.9 °F 38.1 °F 29.92 in ESE 1.0 mph 5.0 mph 74% 0.00 in
09:44 46.1 °F 37.9 °F 29.92 in ESE 2.0 mph 5.0 mph 73% 0.00 in
09:49 46.2 °F 38.0 °F 29.92 in ESE 2.0 mph 5.0 mph 73% 0.00 in
09:54 46.5 °F 38.3 °F 29.92 in ENE 1.0 mph 4.0 mph 73% 0.00 in
09:59 46.9 °F 38.7 °F 29.91 in ESE 2.0 mph 5.0 mph 73% 0.00 in
10:04 47.2 °F 38.6 °F 29.91 in ESE 2.0 mph 5.0 mph 72% 0.00 in
10:09 47.6 °F 38.7 °F 29.91 in East 1.0 mph 7.0 mph 71% 0.00 in
10:14 47.9 °F 38.9 °F 29.90 in SE 2.0 mph 7.0 mph 71% 0.00 in
10:19 48.3 °F 38.6 °F 29.90 in ESE 2.0 mph 5.0 mph 69% 0.00 in
10:24 48.8 °F 38.7 °F 29.90 in ESE 2.0 mph 5.0 mph 68% 0.00 in
10:29 49.2 °F 38.7 °F 29.90 in SE 6.0 mph 6.0 mph 67% 0.00 in
10:34 49.5 °F 39.0 °F 29.90 in ESE 2.0 mph 6.0 mph 67% 0.00 in
10:39 49.9 °F 39.4 °F 29.90 in ESE 2.0 mph 6.0 mph 67% 0.00 in
10:44 50.2 °F 39.3 °F 29.89 in ESE 2.0 mph 5.0 mph 66% 0.00 in
10:49 50.4 °F 39.9 °F 29.89 in ESE 2.0 mph 5.0 mph 67% 0.00 in
10:54 50.9 °F 39.9 °F 29.89 in ESE 2.0 mph 5.0 mph 66% 0.00 in
10:59 51.0 °F 40.0 °F 29.89 in Calm   4.0 mph 66% 0.00 in
11:04 51.3 °F 39.9 °F 29.89 in ESE 4.0 mph 5.0 mph 65% 0.00 in
11:09 51.8 °F 40.4 °F 29.88 in SE 2.0 mph 5.0 mph 65% 0.00 in
11:14 52.2 °F 40.4 °F 29.89 in SE 2.0 mph 10.0 mph 64% 0.00 in
11:19 52.4 °F 39.8 °F 29.89 in SSE 1.0 mph 10.0 mph 62% 0.00 in
11:24 52.8 °F 40.1 °F 29.88 in ESE 1.0 mph 5.0 mph 62% 0.00 in
11:29 52.9 °F 39.8 °F 29.88 in SE 5.0 mph 7.0 mph 61% 0.00 in
11:34 53.4 °F 40.7 °F 29.88 in SE 1.0 mph 5.0 mph 62% 0.00 in
11:39 53.9 °F 40.8 °F 29.89 in ESE 1.0 mph 4.0 mph 61% 0.00 in
11:44 54.2 °F 40.2 °F 29.89 in SE 1.0 mph 4.0 mph 59% 0.00 in
11:49 54.6 °F 41.0 °F 29.89 in SE 1.0 mph 6.0 mph 60% 0.00 in
11:54 54.8 °F 40.7 °F 29.89 in SSE 2.0 mph 6.0 mph 59% 0.00 in
11:59 55.1 °F 40.6 °F 29.88 in SE 2.0 mph 5.0 mph 58% 0.00 in
12:04 55.4 °F 40.9 °F 29.88 in SSE 3.0 mph 5.0 mph 58% 0.00 in
12:09 56.2 °F 41.2 °F 29.88 in SE 5.0 mph 8.0 mph 57% 0.00 in
12:14 56.4 °F 41.3 °F 29.88 in SE 3.0 mph 5.0 mph 57% 0.00 in
12:19 56.6 °F 41.5 °F 29.87 in SE 3.0 mph 7.0 mph 57% 0.00 in
12:24 56.9 °F 41.4 °F 29.87 in SE 2.0 mph 8.0 mph 56% 0.00 in
12:29 57.3 °F 41.7 °F 29.86 in SE 2.0 mph 6.0 mph 56% 0.00 in
12:34 57.5 °F 41.4 °F 29.86 in Calm   4.0 mph 55% 0.00 in
12:39 57.6 °F 42.0 °F 29.86 in SE 1.0 mph 4.0 mph 56% 0.00 in
12:44 57.8 °F 42.2 °F 29.86 in SE 3.0 mph 7.0 mph 56% 0.00 in
12:49 58.2 °F 42.6 °F 29.85 in SE 2.0 mph 7.0 mph 56% 0.00 in
12:54 59.1 °F 42.5 °F 29.85 in SE 2.0 mph 5.0 mph 54% 0.00 in
12:59 59.5 °F 42.3 °F 29.85 in SE 2.0 mph 6.0 mph 53% 0.00 in
13:04 60.1 °F 43.9 °F 29.85 in SSE 3.0 mph 5.0 mph 55% 0.00 in
13:09 60.2 °F 42.5 °F 29.85 in SSE 3.0 mph 6.0 mph 52% 0.00 in
13:14 61.0 °F 44.2 °F 29.84 in South 1.0 mph 6.0 mph 54% 0.00 in
13:19 61.3 °F 44.0 °F 29.84 in SSE 2.0 mph 6.0 mph 53% 0.00 in
13:24 61.8 °F 44.0 °F 29.84 in SSE 3.0 mph 6.0 mph 52% 0.00 in
13:29 62.6 °F 44.7 °F 29.84 in SSE 3.0 mph 7.0 mph 52% 0.00 in
13:34 62.9 °F 44.5 °F 29.84 in SSE 3.0 mph 7.0 mph 51% 0.00 in
13:39 63.7 °F 45.7 °F 29.84 in South 3.0 mph 8.0 mph 52% 0.00 in
13:44 64.5 °F 44.9 °F 29.83 in SW 5.0 mph 9.0 mph 49% 0.00 in
13:49 65.0 °F 45.9 °F 29.83 in South 3.0 mph 9.0 mph 50% 0.00 in
13:54 65.8 °F 45.6 °F 29.83 in SSW 5.0 mph 11.0 mph 48% 0.00 in
13:59 66.7 °F 46.4 °F 29.83 in SSW 4.0 mph 12.0 mph 48% 0.00 in
14:04 66.1 °F 44.7 °F 29.83 in SW 5.0 mph 12.0 mph 46% 0.00 in
14:09 66.4 °F 45.5 °F 29.83 in SSW 7.0 mph 12.0 mph 47% 0.00 in
14:14 66.1 °F 44.7 °F 29.83 in WSW 5.0 mph 10.0 mph 46% 0.00 in
14:19 66.7 °F 45.8 °F 29.83 in SSW 5.0 mph 9.0 mph 47% 0.00 in
14:24 66.6 °F 45.2 °F 29.82 in SW 3.0 mph 8.0 mph 46% 0.00 in
14:29 66.8 °F 44.8 °F 29.82 in SSW 4.0 mph 8.0 mph 45% 0.00 in
14:34 66.9 °F 46.0 °F 29.82 in SSW 4.0 mph 8.0 mph 47% 0.00 in
14:39 67.2 °F 45.1 °F 29.82 in SSW 3.0 mph 8.0 mph 45% 0.00 in
14:44 66.9 °F 45.4 °F 29.82 in SSW 2.0 mph 9.0 mph 46% 0.00 in
14:49 67.2 °F 45.7 °F 29.81 in WSW 3.0 mph 9.0 mph 46% 0.00 in
14:54 67.6 °F 45.5 °F 29.81 in SW 4.0 mph 7.0 mph 45% 0.00 in
14:59 67.6 °F 47.8 °F 29.81 in SW 3.0 mph 7.0 mph 49% 0.00 in
15:04 67.5 °F 45.4 °F 29.81 in SW 3.0 mph 7.0 mph 45% 0.00 in
15:09 67.8 °F 46.8 °F 29.81 in SW 3.0 mph 7.0 mph 47% 0.00 in
15:14 68.3 °F 46.1 °F 29.80 in SW 3.0 mph 7.0 mph 45% 0.00 in
15:19 68.8 °F 46.0 °F 29.80 in West 2.0 mph 11.0 mph 44% 0.00 in
15:24 69.0 °F 47.4 °F 29.80 in NW 6.0 mph 9.0 mph 46% 0.00 in
15:29 68.7 °F 47.1 °F 29.80 in West 1.0 mph 5.0 mph 46% 0.00 in
15:34 69.2 °F 47.5 °F 29.80 in West 3.0 mph 6.0 mph 46% 0.00 in
15:39 69.3 °F 47.6 °F 29.81 in WSW 2.0 mph 6.0 mph 46% 0.00 in
15:44 69.2 °F 46.9 °F 29.80 in West 2.0 mph 8.0 mph 45% 0.00 in
15:49 69.6 °F 49.0 °F 29.80 in SSW 3.0 mph 6.0 mph 48% 0.00 in
15:54 69.7 °F 46.8 °F 29.80 in SW 2.0 mph 5.0 mph 44% 0.00 in
15:59 69.5 °F 45.4 °F 29.80 in SW 2.0 mph 4.0 mph 42% 0.00 in
16:04 69.5 °F 46.6 °F 29.80 in SSW 3.0 mph 5.0 mph 44% 0.00 in
16:09 69.4 °F 45.9 °F 29.80 in SW 2.0 mph 5.0 mph 43% 0.00 in
16:14 69.4 °F 46.5 °F 29.80 in SW 2.0 mph 7.0 mph 44% 0.00 in
16:19 69.4 °F 47.1 °F 29.80 in WSW 2.0 mph 7.0 mph 45% 0.00 in
16:24 69.1 °F 46.9 °F 29.80 in WSW 2.0 mph 6.0 mph 45% 0.00 in
16:29 68.9 °F 46.7 °F 29.80 in WSW 3.0 mph 6.0 mph 45% 0.00 in
16:34 68.7 °F 47.1 °F 29.80 in West 4.0 mph 4.0 mph 46% 0.00 in
16:39 68.6 °F 47.0 °F 29.80 in WSW 2.0 mph 5.0 mph 46% 0.00 in
16:44 68.3 °F 46.1 °F 29.81 in WNW 2.0 mph 4.0 mph 45% 0.00 in
16:49 68.0 °F 45.9 °F 29.80 in West 3.0 mph 5.0 mph 45% 0.00 in
16:54 67.7 °F 46.2 °F 29.81 in West 3.0 mph 4.0 mph 46% 0.00 in
16:59 67.6 °F 45.5 °F 29.81 in West 1.0 mph 4.0 mph 45% 0.00 in
17:04 67.3 °F 46.4 °F 29.81 in West 1.0 mph 3.0 mph 47% 0.00 in
17:09 67.0 °F 45.5 °F 29.81 in West 1.0 mph 4.0 mph 46% 0.00 in
17:14 66.6 °F 45.7 °F 29.81 in WSW 2.0 mph 4.0 mph 47% 0.00 in
17:19 66.1 °F 45.8 °F 29.81 in WSW 2.0 mph 4.0 mph 48% 0.00 in
17:24 65.8 °F 46.1 °F 29.81 in WSW 2.0 mph 5.0 mph 49% 0.00 in
17:29 65.3 °F 45.6 °F 29.81 in SW 1.0 mph 5.0 mph 49% 0.00 in
17:34 65.0 °F 45.9 °F 29.81 in SW 1.0 mph 3.0 mph 50% 0.00 in
17:39 64.6 °F 46.1 °F 29.81 in Calm   3.0 mph 51% 0.00 in
17:44 64.4 °F 45.9 °F 29.81 in Calm   3.0 mph 51% 0.00 in
17:49 64.2 °F 46.2 °F 29.81 in West 1.0 mph 3.0 mph 52% 0.00 in
17:54 63.7 °F 45.7 °F 29.82 in Calm     52% 0.00 in
17:59 63.2 °F 45.8 °F 29.82 in Calm     53% 0.00 in
18:04 62.5 °F 45.6 °F 29.82 in Calm     54% 0.00 in
18:09 62.0 °F 45.6 °F 29.82 in Calm     55% 0.00 in
18:14 61.4 °F 45.6 °F 29.82 in Calm     56% 0.00 in
18:19 60.6 °F 45.7 °F 29.83 in Calm     58% 0.00 in
18:24 59.6 °F 45.7 °F 29.83 in Calm     60% 0.00 in
18:29 58.4 °F 45.8 °F 29.83 in Calm     63% 0.00 in
18:34 57.7 °F 45.6 °F 29.83 in Calm     64% 0.00 in
18:39 57.1 °F 45.8 °F 29.84 in Calm     66% 0.00 in
18:44 56.7 °F 45.9 °F 29.84 in Calm     67% 0.00 in
18:49 56.4 °F 46.0 °F 29.84 in Calm     68% 0.00 in
18:54 55.9 °F 45.9 °F 29.84 in Calm     69% 0.00 in
18:59 55.7 °F 45.7 °F 29.84 in Calm     69% 0.00 in
19:04 55.4 °F 45.8 °F 29.84 in Calm     70% 0.00 in
19:09 54.9 °F 45.7 °F 29.84 in Calm     71% 0.00 in
19:14 54.7 °F 45.8 °F 29.84 in Calm     72% 0.00 in
19:19 54.7 °F 45.8 °F 29.84 in Calm     72% 0.00 in
19:24 54.8 °F 45.9 °F 29.84 in Calm     72% 0.00 in
19:29 55.0 °F 46.1 °F 29.84 in Calm     72% 0.00 in
19:34 55.4 °F 46.5 °F 29.84 in Calm     72% 0.00 in
19:39 55.8 °F 46.9 °F 29.84 in Calm     72% 0.00 in
19:44 56.2 °F 46.9 °F 29.84 in Calm     71% 0.00 in
19:49 56.4 °F 47.5 °F 29.84 in Calm     72% 0.00 in
19:54 56.5 °F 47.6 °F 29.84 in Calm     72% 0.00 in
19:59 57.3 °F 47.6 °F 29.84 in Calm   2.0 mph 70% 0.00 in
20:04 57.9 °F 47.4 °F 29.84 in Calm   2.0 mph 68% 0.00 in
20:09 58.2 °F 47.7 °F 29.83 in Calm     68% 0.00 in
20:14 58.0 °F 47.9 °F 29.83 in Calm     69% 0.00 in
20:19 58.0 °F 47.9 °F 29.83 in Calm     69% 0.00 in
20:24 58.2 °F 47.7 °F 29.83 in Calm     68% 0.00 in
20:29 58.1 °F 48.0 °F 29.84 in Calm     69% 0.00 in
20:34 58.0 °F 47.9 °F 29.84 in Calm   4.0 mph 69% 0.00 in
20:39 57.9 °F 47.4 °F 29.83 in Calm   4.0 mph 68% 0.00 in
20:44 57.8 °F 47.3 °F 29.84 in Calm   3.0 mph 68% 0.00 in
20:49 57.7 °F 47.2 °F 29.83 in SE 1.0 mph 3.0 mph 68% 0.00 in
20:54 57.2 °F 47.1 °F 29.83 in Calm   2.0 mph 69% 0.00 in
20:59 56.8 °F 46.7 °F 29.83 in Calm     69% 0.00 in
21:04 56.6 °F 46.5 °F 29.83 in Calm   2.0 mph 69% 0.00 in
21:09 56.1 °F 46.4 °F 29.83 in Calm   1.0 mph 70% 0.00 in
21:14 55.7 °F 46.1 °F 29.83 in Calm     70% 0.00 in
21:19 55.7 °F 46.1 °F 29.83 in Calm   2.0 mph 70% 0.00 in
21:24 55.8 °F 45.8 °F 29.82 in SE 2.0 mph 3.0 mph 69% 0.00 in
21:29 56.0 °F 45.2 °F 29.83 in SE 1.0 mph 2.0 mph 67% 0.00 in
21:34 56.3 °F 45.1 °F 29.83 in SE 2.0 mph 3.0 mph 66% 0.00 in
21:39 56.6 °F 45.0 °F 29.82 in Calm   5.0 mph 65% 0.00 in
21:44 56.9 °F 44.4 °F 29.82 in SSE 1.0 mph 5.0 mph 63% 0.00 in
21:49 57.3 °F 44.4 °F 29.83 in SSE 1.0 mph 5.0 mph 62% 0.00 in
21:54 57.5 °F 44.1 °F 29.83 in SSE 2.0 mph 5.0 mph 61% 0.00 in
21:59 57.5 °F 43.7 °F 29.83 in SSE 2.0 mph 5.0 mph 60% 0.00 in
22:04 57.8 °F 43.6 °F 29.82 in SSE 3.0 mph 10.0 mph 59% 0.00 in
22:09 58.1 °F 42.9 °F 29.82 in SSE 3.0 mph 10.0 mph 57% 0.00 in
22:14 58.3 °F 43.1 °F 29.82 in South 7.0 mph 10.0 mph 57% 0.00 in
22:19 58.6 °F 42.5 °F 29.82 in SSE 4.0 mph 10.0 mph 55% 0.00 in
22:24 58.8 °F 42.7 °F 29.82 in SSE 4.0 mph 9.0 mph 55% 0.00 in
22:29 59.0 °F 42.4 °F 29.82 in South 3.0 mph 8.0 mph 54% 0.00 in
22:34 58.9 °F 42.3 °F 29.82 in SSE 4.0 mph 10.0 mph 54% 0.00 in
22:39 58.9 °F 42.3 °F 29.81 in SSE 6.0 mph 8.0 mph 54% 0.00 in
22:44 58.9 °F 42.3 °F 29.81 in South 3.0 mph 8.0 mph 54% 0.00 in
22:49 58.9 °F 41.8 °F 29.81 in SSE 4.0 mph 12.0 mph 53% 0.00 in
22:54 58.9 °F 41.8 °F 29.81 in SSE 5.0 mph 12.0 mph 53% 0.00 in
22:59 58.9 °F 41.8 °F 29.81 in SSE 5.0 mph 11.0 mph 53% 0.00 in
23:04 58.9 °F 41.8 °F 29.81 in SSE 4.0 mph 9.0 mph 53% 0.00 in
23:09 58.7 °F 41.6 °F 29.81 in SSE 4.0 mph 10.0 mph 53% 0.00 in
23:19 58.8 °F 41.7 °F 29.81 in South 4.0 mph 10.0 mph 53% 0.00 in
23:24 58.7 °F 41.6 °F 29.81 in SSE 4.0 mph 10.0 mph 53% 0.00 in
23:29 58.7 °F 41.1 °F 29.81 in SE 6.0 mph 10.0 mph 52% 0.00 in
23:34 58.7 °F 41.1 °F 29.80 in South 3.0 mph 11.0 mph 52% 0.00 in
23:39 58.6 °F 41.0 °F 29.80 in South 2.0 mph 13.0 mph 52% 0.00 in
23:44 58.5 °F 40.9 °F 29.80 in SSE 6.0 mph 9.0 mph 52% 0.00 in
23:49 58.3 °F 40.7 °F 29.80 in SSE 7.0 mph 9.0 mph 52% 0.00 in
23:54 58.2 °F 40.6 °F 29.80 in SE 1.0 mph 9.0 mph 52% 0.00 in
23:59 58.2 °F 40.6 °F 29.80 in SSE 4.0 mph 10.0 mph 52% 0.00 in
Buffalo, New York, USA
Compliments of Weather Underground - 2.5 mb